< < Back
Terminal Aerodrome Forecast


Current Version              Previous Versions:   1  2  3  4  5  6  7  8  9  

Terminal Aerodrome Forecast

113
FTUS44 KBMX 242300
TAFMGM
TAF
KMGM 242325Z 2500/2524 00000KT P6SM SKC=



Latest METAR

407
SAUS80 KWBC 250400
MTRMGM
METAR KMGM 250353Z AUTO 00000KT 10SM CLR 10/07 A3007 RMK AO2 SLP180
T01000067


USA.gov is the U.S. government's official web portal to all federal, state and local government web resources and services.